createdAt,value
2023-01-09T00:01:01.833Z,1.76
2023-01-09T00:03:29.443Z,1.71
2023-01-09T00:05:56.336Z,1.67
2023-01-09T00:08:23.511Z,1.65
2023-01-09T00:10:50.960Z,1.68
2023-01-09T00:13:20.745Z,1.59
2023-01-09T00:15:49.048Z,1.55
2023-01-09T00:18:16.898Z,1.41
2023-01-09T00:20:43.722Z,1.32
2023-01-09T00:23:11.289Z,1.26
2023-01-09T00:25:38.699Z,1.31
2023-01-09T00:28:05.797Z,1.30
2023-01-09T00:30:32.630Z,1.35
2023-01-09T00:33:00.408Z,1.23
2023-01-09T00:35:28.772Z,1.40
2023-01-09T00:37:55.798Z,1.37
2023-01-09T00:40:22.758Z,1.32
2023-01-09T00:42:55.817Z,1.34
2023-01-09T00:45:29.612Z,1.36
2023-01-09T00:48:08.118Z,1.24
2023-01-09T00:50:36.202Z,1.26
2023-01-09T00:53:18.077Z,1.24
2023-01-09T00:55:46.941Z,1.18
2023-01-09T00:58:15.159Z,1.14
2023-01-09T01:00:42.319Z,1.07
2023-01-09T01:03:09.186Z,1.19
2023-01-09T01:05:55.309Z,1.24
2023-01-09T01:08:22.383Z,1.26
2023-01-09T01:10:49.497Z,1.36
2023-01-09T01:13:17.738Z,1.46
2023-01-09T01:15:46.596Z,1.52
2023-01-09T01:18:14.749Z,1.55
2023-01-09T01:20:43.186Z,1.55
2023-01-09T01:23:10.558Z,1.56
2023-01-09T01:25:39.344Z,1.55
2023-01-09T01:28:07.227Z,1.52
2023-01-09T01:30:37.354Z,1.61
2023-01-09T01:33:04.270Z,1.50
2023-01-09T01:35:31.100Z,1.59
2023-01-09T01:37:58.027Z,1.76
2023-01-09T01:40:24.844Z,1.73
2023-01-09T01:42:54.232Z,1.67
2023-01-09T01:45:24.625Z,1.49
2023-01-09T01:48:03.709Z,1.50
2023-01-09T01:50:38.754Z,1.36
2023-01-09T01:53:16.504Z,1.38
2023-01-09T01:55:51.649Z,1.44
2023-01-09T01:58:20.027Z,1.59
2023-01-09T02:00:48.537Z,1.61
2023-01-09T02:03:19.232Z,1.57
2023-01-09T02:05:46.967Z,1.60
2023-01-09T02:08:14.455Z,1.69
2023-01-09T02:10:41.612Z,1.77
2023-01-09T02:13:09.910Z,1.72
2023-01-09T02:15:52.021Z,1.67
2023-01-09T02:18:38.215Z,1.83
2023-01-09T02:21:15.867Z,1.81
2023-01-09T02:24:03.894Z,1.82
2023-01-09T02:27:08.727Z,1.82
2023-01-09T02:29:46.707Z,1.74
2023-01-09T02:32:32.028Z,1.28
2023-01-09T02:35:16.600Z,1.17
2023-01-09T02:38:05.379Z,1.22
2023-01-09T02:40:43.126Z,1.18
2023-01-09T02:43:12.442Z,1.17
2023-01-09T02:45:39.671Z,1.20
2023-01-09T02:48:08.378Z,1.25
2023-01-09T02:50:58.826Z,1.28
2023-01-09T02:54:01.154Z,1.20
2023-01-09T02:56:40.777Z,1.02
2023-01-09T02:59:26.005Z,0.92
2023-01-09T03:02:08.286Z,0.99
2023-01-09T03:04:42.789Z,0.94
2023-01-09T03:07:18.895Z,0.98
2023-01-09T03:09:50.603Z,1.05
2023-01-09T03:12:22.294Z,0.97
2023-01-09T03:14:53.366Z,0.89
2023-01-09T03:17:37.298Z,0.73
2023-01-09T03:20:07.383Z,0.79
2023-01-09T03:22:34.182Z,0.89
2023-01-09T03:25:01.054Z,0.88
2023-01-09T03:27:28.037Z,0.85
2023-01-09T03:29:56.633Z,0.77
2023-01-09T03:32:23.544Z,0.66
2023-01-09T03:34:50.453Z,0.62
2023-01-09T03:37:17.341Z,0.57
2023-01-09T03:39:44.274Z,0.42
2023-01-09T03:42:11.146Z,0.48
2023-01-09T03:44:37.934Z,0.53
2023-01-09T03:47:04.838Z,0.59
2023-01-09T03:49:31.788Z,0.51
2023-01-09T03:51:58.586Z,0.45
2023-01-09T03:54:25.502Z,0.59
2023-01-09T03:56:52.281Z,0.59
2023-01-09T03:59:19.160Z,0.56
2023-01-09T04:01:46.079Z,0.63
2023-01-09T04:04:13.000Z,0.57
2023-01-09T04:06:39.863Z,0.63
2023-01-09T04:09:06.697Z,0.61
2023-01-09T04:11:33.607Z,0.69
2023-01-09T04:14:00.427Z,0.68
2023-01-09T04:16:27.373Z,0.52
2023-01-09T04:18:54.341Z,0.62
2023-01-09T04:21:21.221Z,0.42
2023-01-09T04:23:48.077Z,0.48
2023-01-09T04:26:14.952Z,0.56
2023-01-09T04:28:41.795Z,0.66
2023-01-09T04:31:08.852Z,0.81
2023-01-09T04:33:36.445Z,0.88
2023-01-09T04:36:03.561Z,0.94
2023-01-09T04:38:30.385Z,0.92
2023-01-09T04:40:57.446Z,1.03
2023-01-09T04:43:24.595Z,1.12
2023-01-09T04:45:51.453Z,1.12
2023-01-09T04:48:18.304Z,1.05
2023-01-09T04:50:45.124Z,1.16
2023-01-09T04:53:12.000Z,1.22
2023-01-09T04:55:38.901Z,1.26
2023-01-09T04:58:05.723Z,1.22
2023-01-09T05:00:32.670Z,1.24
2023-01-09T05:02:59.573Z,1.16
2023-01-09T05:05:26.502Z,0.96
2023-01-09T05:07:53.324Z,0.90
2023-01-09T05:10:20.208Z,0.98
2023-01-09T05:12:47.053Z,1.10
2023-01-09T05:15:13.984Z,1.08
2023-01-09T05:17:40.858Z,1.13
2023-01-09T05:20:08.192Z,1.15
2023-01-09T05:22:35.091Z,1.13
2023-01-09T05:25:02.147Z,1.08
2023-01-09T05:27:30.507Z,1.11
2023-01-09T05:29:57.450Z,1.19
2023-01-09T05:32:25.075Z,1.15
2023-01-09T05:34:52.303Z,1.14
2023-01-09T05:37:19.105Z,1.19
2023-01-09T05:39:46.629Z,1.08
2023-01-09T05:42:13.410Z,1.11
2023-01-09T05:44:40.500Z,1.07
2023-01-09T05:47:07.683Z,1.21
2023-01-09T05:49:35.045Z,1.18
2023-01-09T05:52:01.875Z,1.04
2023-01-09T05:54:29.692Z,1.06
2023-01-09T05:56:56.655Z,1.20
2023-01-09T05:59:24.336Z,1.21
2023-01-09T06:01:51.806Z,1.25
2023-01-09T06:04:18.886Z,1.23
2023-01-09T06:06:45.595Z,1.23
2023-01-09T06:09:12.971Z,1.20
2023-01-09T06:11:39.840Z,1.12
2023-01-09T06:14:07.582Z,1.06
2023-01-09T06:16:34.511Z,1.06
2023-01-09T06:19:01.404Z,1.16
2023-01-09T06:21:29.693Z,1.18
2023-01-09T06:23:56.806Z,1.20
2023-01-09T06:26:24.619Z,1.18
2023-01-09T06:28:51.725Z,1.19
2023-01-09T06:31:18.756Z,1.25
2023-01-09T06:33:45.718Z,1.36
2023-01-09T06:36:12.603Z,1.27
2023-01-09T06:38:39.421Z,1.26
2023-01-09T06:41:07.177Z,1.26
2023-01-09T06:43:34.399Z,1.21
2023-01-09T06:46:01.316Z,1.17
2023-01-09T06:48:29.036Z,1.27
2023-01-09T06:50:56.005Z,1.40
2023-01-09T06:53:23.666Z,1.47
2023-01-09T06:55:51.307Z,1.52
2023-01-09T06:58:18.587Z,1.62
2023-01-09T07:00:45.396Z,1.87
2023-01-09T07:03:15.551Z,1.97
2023-01-09T07:05:43.191Z,2.08
2023-01-09T07:08:10.286Z,2.20
2023-01-09T07:10:37.172Z,2.22
2023-01-09T07:13:04.179Z,2.27
2023-01-09T07:15:30.999Z,2.31
2023-01-09T07:17:57.903Z,2.17
2023-01-09T07:20:24.748Z,2.32
2023-01-09T07:22:51.686Z,2.36
2023-01-09T07:25:18.566Z,2.48
2023-01-09T07:27:45.527Z,2.59
2023-01-09T07:30:13.274Z,2.80
2023-01-09T07:32:41.208Z,2.85
2023-01-09T07:35:09.457Z,2.76
2023-01-09T07:37:36.738Z,2.88
2023-01-09T07:40:04.333Z,3.05
2023-01-09T07:42:31.188Z,3.13
2023-01-09T07:44:58.035Z,3.30
2023-01-09T07:47:24.908Z,3.27
2023-01-09T07:49:51.801Z,3.38
2023-01-09T07:52:18.654Z,3.50
2023-01-09T07:54:45.470Z,3.49
2023-01-09T07:57:12.295Z,3.43
2023-01-09T07:59:39.025Z,3.46
2023-01-09T08:02:07.306Z,3.54
2023-01-09T08:04:34.243Z,3.59
2023-01-09T08:07:03.230Z,3.37
2023-01-09T08:09:30.614Z,3.37
2023-01-09T08:11:57.733Z,3.11
2023-01-09T08:14:26.754Z,2.88
2023-01-09T08:16:53.590Z,2.97
2023-01-09T08:19:20.685Z,3.02
2023-01-09T08:21:47.880Z,3.12
2023-01-09T08:24:15.081Z,3.23
2023-01-09T08:26:41.940Z,3.32
2023-01-09T08:29:09.182Z,3.46
2023-01-09T08:31:36.026Z,3.40
2023-01-09T08:34:04.240Z,3.55
2023-01-09T08:36:31.379Z,3.47
2023-01-09T08:38:58.482Z,3.50
2023-01-09T08:41:44.139Z,3.45
2023-01-09T08:44:29.998Z,3.23
2023-01-09T08:47:06.949Z,3.05
2023-01-09T08:49:36.196Z,3.04
2023-01-09T08:52:03.584Z,3.23
2023-01-09T08:54:31.523Z,3.54
2023-01-09T08:56:58.408Z,3.59
2023-01-09T08:59:25.542Z,3.71
2023-01-09T09:01:53.078Z,3.94
2023-01-09T09:04:20.232Z,4.18
2023-01-09T09:06:47.096Z,4.20
2023-01-09T09:09:15.548Z,4.38
2023-01-09T09:11:42.407Z,3.80
2023-01-09T09:14:28.314Z,3.93
2023-01-09T09:16:55.454Z,4.00
2023-01-09T09:19:22.341Z,3.99
2023-01-09T09:21:49.819Z,3.91
2023-01-09T09:24:16.613Z,4.09
2023-01-09T09:26:44.849Z,4.32
2023-01-09T09:29:12.269Z,4.63
2023-01-09T09:31:39.463Z,4.96
2023-01-09T09:34:07.740Z,5.27
2023-01-09T09:36:35.158Z,5.14
2023-01-09T09:39:03.041Z,5.13
2023-01-09T09:42:13.368Z,5.17
2023-01-09T09:44:59.272Z,4.87
2023-01-09T09:48:00.527Z,5.02
2023-01-09T09:51:00.269Z,5.35
2023-01-09T09:54:02.350Z,5.67
2023-01-09T09:56:34.970Z,5.71
2023-01-09T09:59:08.353Z,5.83
2023-01-09T10:01:59.353Z,5.94
2023-01-09T10:04:30.936Z,5.95
2023-01-09T10:07:09.563Z,5.69
2023-01-09T10:09:36.448Z,5.78
2023-01-09T10:12:05.902Z,5.99
2023-01-09T10:14:32.904Z,5.99
2023-01-09T10:17:17.490Z,5.78
2023-01-09T10:20:03.056Z,6.01
2023-01-09T10:22:39.436Z,6.13
2023-01-09T10:25:21.620Z,6.10
2023-01-09T10:28:00.818Z,6.03
2023-01-09T10:30:39.677Z,6.31
2023-01-09T10:33:35.432Z,6.58
2023-01-09T10:36:26.970Z,6.43
2023-01-09T10:38:58.817Z,6.58
2023-01-09T10:41:37.878Z,6.45
2023-01-09T10:44:14.062Z,6.35
2023-01-09T10:46:53.423Z,6.40
2023-01-09T10:49:23.838Z,6.55
2023-01-09T10:51:58.228Z,6.35
2023-01-09T10:54:25.911Z,6.51
2023-01-09T10:57:00.684Z,6.73
2023-01-09T10:59:30.483Z,7.04
2023-01-09T11:01:57.768Z,6.93
2023-01-09T11:04:29.405Z,7.08
2023-01-09T11:07:10.635Z,6.81
2023-01-09T11:10:01.495Z,6.75
2023-01-09T11:12:34.078Z,6.82
2023-01-09T11:15:16.723Z,7.03
2023-01-09T11:17:44.423Z,7.43
2023-01-09T11:20:17.964Z,7.88
2023-01-09T11:22:50.014Z,8.19
2023-01-09T11:25:19.877Z,8.61
2023-01-09T11:28:16.088Z,9.06
2023-01-09T11:31:03.491Z,9.25
2023-01-09T11:33:47.823Z,8.87
2023-01-09T11:36:16.154Z,8.47
2023-01-09T11:38:53.340Z,8.74
2023-01-09T11:41:28.543Z,9.01
2023-01-09T11:43:59.721Z,9.19
2023-01-09T11:46:45.010Z,8.95
2023-01-09T11:49:15.230Z,8.99
2023-01-09T11:51:43.142Z,9.05
2023-01-09T11:54:16.014Z,8.67
2023-01-09T11:56:44.243Z,8.82
2023-01-09T11:59:23.229Z,8.83
2023-01-09T12:02:05.239Z,8.57
2023-01-09T12:04:43.281Z,8.53
2023-01-09T12:07:22.464Z,8.63
2023-01-09T12:10:07.740Z,8.72
2023-01-09T12:12:44.114Z,8.77
2023-01-09T12:15:17.113Z,8.76
2023-01-09T12:17:50.361Z,8.60
2023-01-09T12:20:56.291Z,8.46
2023-01-09T12:23:43.210Z,8.58
2023-01-09T12:26:13.079Z,8.48
2023-01-09T12:29:13.926Z,8.11
2023-01-09T12:32:01.032Z,8.11
2023-01-09T12:34:46.015Z,7.90
2023-01-09T12:37:48.036Z,7.98
2023-01-09T12:40:42.599Z,8.13
2023-01-09T12:43:21.718Z,8.13
2023-01-09T12:45:56.704Z,8.04
2023-01-09T12:48:36.676Z,7.97
2023-01-09T12:51:37.733Z,7.16
2023-01-09T12:54:20.268Z,7.43
2023-01-09T12:57:02.842Z,7.35
2023-01-09T12:59:38.458Z,7.34
2023-01-09T13:02:15.705Z,7.47
2023-01-09T13:05:00.622Z,7.55
2023-01-09T13:07:34.386Z,7.49
2023-01-09T13:10:26.733Z,7.52
2023-01-09T13:12:57.608Z,7.65
2023-01-09T13:15:31.580Z,7.73
2023-01-09T13:18:14.633Z,7.74
2023-01-09T13:20:48.803Z,7.70
2023-01-09T13:23:28.155Z,7.64
2023-01-09T13:26:03.033Z,7.57
2023-01-09T13:28:43.789Z,7.38
2023-01-09T13:31:44.225Z,7.27
2023-01-09T13:34:22.285Z,7.22
2023-01-09T13:36:52.923Z,7.22
2023-01-09T13:39:28.410Z,7.22
2023-01-09T13:42:21.616Z,7.32
2023-01-09T13:44:51.538Z,7.32
2023-01-09T13:47:29.066Z,7.23
2023-01-09T13:50:09.852Z,7.26
2023-01-09T13:52:40.002Z,7.23
2023-01-09T13:55:16.180Z,7.24
2023-01-09T13:58:14.424Z,7.10
2023-01-09T14:00:44.490Z,7.02
2023-01-09T14:03:20.167Z,6.86
2023-01-09T14:05:47.193Z,6.88
2023-01-09T14:08:18.626Z,6.87
2023-01-09T14:10:53.597Z,6.94
2023-01-09T14:13:26.474Z,6.95
2023-01-09T14:16:05.169Z,6.85
2023-01-09T14:18:38.430Z,6.98
2023-01-09T14:21:10.201Z,7.01
2023-01-09T14:23:54.324Z,6.88
2023-01-09T14:26:43.006Z,6.92
2023-01-09T14:29:29.414Z,6.83
2023-01-09T14:32:21.998Z,6.87
2023-01-09T14:35:08.298Z,6.90
2023-01-09T14:37:40.742Z,6.68
2023-01-09T14:40:16.131Z,6.65
2023-01-09T14:42:47.117Z,6.62
2023-01-09T14:45:19.465Z,6.74
2023-01-09T14:47:53.350Z,6.90
2023-01-09T14:50:46.477Z,6.82
2023-01-09T14:53:21.367Z,6.93
2023-01-09T14:55:53.694Z,6.90
2023-01-09T14:58:27.629Z,6.89
2023-01-09T15:01:16.773Z,6.94
2023-01-09T15:04:02.977Z,6.84
2023-01-09T15:06:35.940Z,6.82
2023-01-09T15:09:15.081Z,6.84
2023-01-09T15:11:42.836Z,6.59
2023-01-09T15:14:32.320Z,6.52
2023-01-09T15:17:01.167Z,6.55
2023-01-09T15:19:30.115Z,6.39
2023-01-09T15:22:21.856Z,6.60
2023-01-09T15:24:50.025Z,6.63
2023-01-09T15:27:22.195Z,6.67
2023-01-09T15:29:50.098Z,6.70
2023-01-09T15:32:25.007Z,6.81
2023-01-09T15:34:54.205Z,6.83
2023-01-09T15:37:39.123Z,6.81
2023-01-09T15:40:08.678Z,6.60
2023-01-09T15:42:58.180Z,6.88
2023-01-09T15:45:32.871Z,6.92
2023-01-09T15:48:18.255Z,6.89
2023-01-09T15:50:47.538Z,6.88
2023-01-09T15:53:17.936Z,6.80
2023-01-09T15:55:46.605Z,6.93
2023-01-09T15:58:38.720Z,6.98
2023-01-09T16:01:08.095Z,6.89
2023-01-09T16:03:39.677Z,6.96
2023-01-09T16:06:16.046Z,6.97
2023-01-09T16:08:52.407Z,6.84
2023-01-09T16:11:34.841Z,6.71
2023-01-09T16:14:20.292Z,6.80
2023-01-09T16:16:48.276Z,6.71
2023-01-09T16:19:45.909Z,6.43
2023-01-09T16:22:30.738Z,6.55
2023-01-09T16:25:37.432Z,6.69
2023-01-09T16:28:23.809Z,6.86
2023-01-09T16:31:18.535Z,6.80
2023-01-09T16:33:54.782Z,6.66
2023-01-09T16:36:22.815Z,6.57
2023-01-09T16:38:50.349Z,6.55
2023-01-09T16:41:40.440Z,6.66
2023-01-09T16:44:09.919Z,6.45
2023-01-09T16:46:44.274Z,6.55
2023-01-09T16:49:31.647Z,6.56
2023-01-09T16:52:03.392Z,6.56
2023-01-09T16:54:30.808Z,6.55
2023-01-09T16:56:57.739Z,6.57
2023-01-09T16:59:29.087Z,6.47
2023-01-09T17:01:56.568Z,6.51
2023-01-09T17:04:26.342Z,6.33
2023-01-09T17:06:53.711Z,6.48
2023-01-09T17:09:24.085Z,6.50
2023-01-09T17:11:52.281Z,6.46
2023-01-09T17:14:19.376Z,6.49
2023-01-09T17:16:46.859Z,6.53
2023-01-09T17:19:19.085Z,6.55
2023-01-09T17:21:47.490Z,6.31
2023-01-09T17:24:33.414Z,6.41
2023-01-09T17:27:20.984Z,6.52
2023-01-09T17:29:48.618Z,6.61
2023-01-09T17:32:17.593Z,6.60
2023-01-09T17:34:45.541Z,6.57
2023-01-09T17:37:16.129Z,6.64
2023-01-09T17:39:44.152Z,6.70
2023-01-09T17:42:12.499Z,6.73
2023-01-09T17:44:39.748Z,6.47
2023-01-09T17:47:07.426Z,6.50
2023-01-09T17:49:36.657Z,6.56
2023-01-09T17:52:03.585Z,6.71
2023-01-09T17:54:30.674Z,6.79
2023-01-09T17:57:04.713Z,6.79
2023-01-09T17:59:31.725Z,6.64
2023-01-09T18:01:58.766Z,6.82
2023-01-09T18:04:25.744Z,6.70
2023-01-09T18:06:54.645Z,6.75
2023-01-09T18:09:21.524Z,6.86
2023-01-09T18:11:48.423Z,6.67
2023-01-09T18:14:15.422Z,6.55
2023-01-09T18:16:42.396Z,6.32
2023-01-09T18:19:09.384Z,6.19
2023-01-09T18:21:36.241Z,6.15
2023-01-09T18:24:03.197Z,6.13
2023-01-09T18:26:30.315Z,6.31
2023-01-09T18:28:59.324Z,6.31
2023-01-09T18:31:28.662Z,6.19
2023-01-09T18:33:58.255Z,6.23
2023-01-09T18:36:30.325Z,6.19
2023-01-09T18:39:02.482Z,6.27
2023-01-09T18:41:30.689Z,6.33
2023-01-09T18:44:00.335Z,6.45
2023-01-09T18:46:32.066Z,6.51
2023-01-09T18:49:04.568Z,6.53
2023-01-09T18:51:33.839Z,6.52
2023-01-09T18:54:00.792Z,6.39
2023-01-09T18:56:28.329Z,6.24
2023-01-09T18:58:59.405Z,6.14
2023-01-09T19:01:28.801Z,6.03
2023-01-09T19:03:56.864Z,5.87
2023-01-09T19:06:24.194Z,5.76
2023-01-09T19:08:51.188Z,5.72
2023-01-09T19:11:18.960Z,5.77
2023-01-09T19:13:46.336Z,5.79
2023-01-09T19:16:13.280Z,6.02
2023-01-09T19:18:42.005Z,6.01
2023-01-09T19:21:23.672Z,6.16
2023-01-09T19:23:50.603Z,6.27
2023-01-09T19:26:26.055Z,6.06
2023-01-09T19:28:55.513Z,5.99
2023-01-09T19:31:24.960Z,6.13
2023-01-09T19:33:52.847Z,6.21
2023-01-09T19:36:20.651Z,6.32
2023-01-09T19:38:47.634Z,6.32
2023-01-09T19:41:19.533Z,6.34
2023-01-09T19:43:47.995Z,6.43
2023-01-09T19:46:17.658Z,6.44
2023-01-09T19:48:44.811Z,6.34
2023-01-09T19:51:13.312Z,5.91
2023-01-09T19:53:40.537Z,5.78
2023-01-09T19:56:13.352Z,5.85
2023-01-09T19:58:42.258Z,5.99
2023-01-09T20:01:17.860Z,6.10
2023-01-09T20:03:46.869Z,6.15
2023-01-09T20:06:19.013Z,6.27
2023-01-09T20:08:47.758Z,6.25
2023-01-09T20:11:16.259Z,6.26
2023-01-09T20:13:43.810Z,6.54
2023-01-09T20:16:15.380Z,6.57
2023-01-09T20:18:42.409Z,6.56
2023-01-09T20:21:09.621Z,6.58
2023-01-09T20:23:37.637Z,6.47
2023-01-09T20:26:09.668Z,6.45
2023-01-09T20:28:38.301Z,6.37
2023-01-09T20:31:10.628Z,6.51
2023-01-09T20:33:37.947Z,6.57
2023-01-09T20:36:05.369Z,6.65
2023-01-09T20:38:32.937Z,6.66
2023-01-09T20:41:11.188Z,6.77
2023-01-09T20:43:39.226Z,6.90
2023-01-09T20:46:07.239Z,6.95
2023-01-09T20:48:34.156Z,6.96
2023-01-09T20:51:06.891Z,6.99
2023-01-09T20:53:34.231Z,6.99
2023-01-09T20:56:03.437Z,7.08
2023-01-09T20:58:30.400Z,7.05
2023-01-09T21:00:57.382Z,7.11
2023-01-09T21:03:25.275Z,7.14
2023-01-09T21:05:52.238Z,7.09
2023-01-09T21:08:19.123Z,7.12
2023-01-09T21:10:48.050Z,7.12
2023-01-09T21:13:15.181Z,7.13
2023-01-09T21:15:42.439Z,7.12
2023-01-09T21:18:09.338Z,7.14
2023-01-09T21:20:36.217Z,7.13
2023-01-09T21:23:03.272Z,7.11
2023-01-09T21:25:30.219Z,7.14
2023-01-09T21:27:57.051Z,7.13
2023-01-09T21:30:24.037Z,7.17
2023-01-09T21:32:51.028Z,7.16
2023-01-09T21:35:18.469Z,7.13
2023-01-09T21:37:45.313Z,7.18
2023-01-09T21:40:19.149Z,7.19
2023-01-09T21:43:05.435Z,7.19
2023-01-09T21:45:54.777Z,7.18
2023-01-09T21:48:23.700Z,7.10
2023-01-09T21:50:50.645Z,7.15
2023-01-09T21:53:17.510Z,6.99
2023-01-09T21:55:44.467Z,6.69
2023-01-09T21:58:11.697Z,6.66
2023-01-09T22:00:39.420Z,6.75
2023-01-09T22:03:09.282Z,6.45
2023-01-09T22:05:37.474Z,6.53
2023-01-09T22:08:04.321Z,6.56
2023-01-09T22:10:31.438Z,6.61
2023-01-09T22:13:16.309Z,6.69
2023-01-09T22:15:44.949Z,6.90
2023-01-09T22:18:12.335Z,6.73
2023-01-09T22:20:39.542Z,6.90
2023-01-09T22:23:06.633Z,6.75
2023-01-09T22:25:36.558Z,6.80
2023-01-09T22:28:06.362Z,6.79
2023-01-09T22:30:33.243Z,6.73
2023-01-09T22:33:00.768Z,6.66
2023-01-09T22:35:28.015Z,6.59
2023-01-09T22:37:55.264Z,6.45
2023-01-09T22:40:21.981Z,6.51
2023-01-09T22:42:52.860Z,6.47
2023-01-09T22:45:20.301Z,6.51
2023-01-09T22:47:47.474Z,6.39
2023-01-09T22:50:15.502Z,6.47
2023-01-09T22:52:42.947Z,6.37
2023-01-09T22:55:10.725Z,6.31
2023-01-09T22:57:37.578Z,6.33
2023-01-09T23:00:05.407Z,6.26
2023-01-09T23:02:32.367Z,6.26
2023-01-09T23:04:59.943Z,6.06
2023-01-09T23:07:27.589Z,6.15
2023-01-09T23:10:00.655Z,6.13
2023-01-09T23:12:28.504Z,6.18
2023-01-09T23:14:55.291Z,6.27
2023-01-09T23:17:22.421Z,6.23
2023-01-09T23:19:49.559Z,6.20
2023-01-09T23:22:16.935Z,6.24
2023-01-09T23:24:43.815Z,6.17
2023-01-09T23:27:11.450Z,6.23
2023-01-09T23:29:40.269Z,6.09
2023-01-09T23:32:07.588Z,6.04
2023-01-09T23:34:35.109Z,6.01
2023-01-09T23:37:04.085Z,6.07
2023-01-09T23:39:30.898Z,5.93
2023-01-09T23:42:16.908Z,6.02
2023-01-09T23:44:44.107Z,5.83
2023-01-09T23:47:10.927Z,5.85
2023-01-09T23:49:39.062Z,5.89
2023-01-09T23:52:08.485Z,5.80
2023-01-09T23:54:36.348Z,5.79
2023-01-09T23:57:03.521Z,5.59
2023-01-09T23:59:30.649Z,5.59
